Santa Cruz/El Trompillo, Bolivia
Current Conditions -  °F | °C
As of 7:00 PM on Saturday 22 Nov 2014 (Local Time) from SLET Reporting Station
Broken Clouds Broken Clouds  
Wind Chill: 73°   Ceiling: 2000
Heat Index: 73°   Visibility: 6mi
Dew Point: 66°   Wind: 16mph
Humidity: 78%   Direction: 160°SSE
Pressure: 29.85"   Gusts: NA
Location:  17.81°S, 63.17°W
Report Text: SLET 222300Z 16014KT 9999 BKN020 BKN070 23/19 Q1011
Loading
Personal Weather Stations






























Interactive Weather Map New forecast layout! Learn more

10-Day Weather Forecast

Advertisements
Track Severe Weather on mobile